createdAt,value
2018-01-30T00:01:16.046Z,67.40
2018-01-30T00:03:43.473Z,67.30
2018-01-30T00:06:10.935Z,66.70
2018-01-30T00:08:39.135Z,66.20
2018-01-30T00:11:06.556Z,66.20
2018-01-30T00:13:34.003Z,66.10
2018-01-30T00:16:01.433Z,65.60
2018-01-30T00:18:28.859Z,65.30
2018-01-30T00:20:56.313Z,65.20
2018-01-30T00:23:23.746Z,65.30
2018-01-30T00:25:51.174Z,64.80
2018-01-30T00:28:18.611Z,64.30
2018-01-30T00:30:46.065Z,64.60
2018-01-30T00:33:13.495Z,64.60
2018-01-30T00:35:40.915Z,64.30
2018-01-30T00:38:08.355Z,63.50
2018-01-30T00:40:35.799Z,63.50
2018-01-30T00:43:03.223Z,64.20
2018-01-30T00:45:30.667Z,63.10
2018-01-30T00:47:58.122Z,63.20
2018-01-30T00:50:26.017Z,63.00
2018-01-30T00:52:53.442Z,62.40
2018-01-30T00:55:21.660Z,62.20
2018-01-30T00:57:49.087Z,62.10
2018-01-30T01:00:16.531Z,62.10
2018-01-30T01:02:43.959Z,61.90
2018-01-30T01:05:11.372Z,61.40
2018-01-30T01:07:38.845Z,61.60
2018-01-30T01:10:06.278Z,61.90
2018-01-30T01:12:33.842Z,62.00
2018-01-30T01:15:01.286Z,61.70
2018-01-30T01:17:28.727Z,62.00
2018-01-30T01:19:56.151Z,61.50
2018-01-30T01:22:23.585Z,61.70
2018-01-30T01:24:51.028Z,62.10
2018-01-30T01:27:18.450Z,62.30
2018-01-30T01:29:46.655Z,62.50
2018-01-30T01:32:14.103Z,62.30
2018-01-30T01:34:41.543Z,62.70
2018-01-30T01:37:09.728Z,62.60
2018-01-30T01:39:37.165Z,62.60
2018-01-30T01:42:05.367Z,62.80
2018-01-30T01:44:32.802Z,62.70
2018-01-30T01:47:01.011Z,62.70
2018-01-30T01:49:32.224Z,62.60
2018-01-30T01:52:00.431Z,62.60
2018-01-30T01:54:27.851Z,62.60
2018-01-30T01:56:56.064Z,62.30
2018-01-30T01:59:23.483Z,62.10
2018-01-30T02:01:51.706Z,62.20
2018-01-30T02:04:19.128Z,62.20
2018-01-30T02:06:46.564Z,62.80
2018-01-30T02:09:14.010Z,62.70
2018-01-30T02:11:41.432Z,62.60
2018-01-30T02:14:08.871Z,62.60
2018-01-30T02:16:36.300Z,62.60
2018-01-30T02:19:03.768Z,62.30
2018-01-30T02:21:31.187Z,62.40
2018-01-30T02:23:58.634Z,62.80
2018-01-30T02:26:26.077Z,62.50
2018-01-30T02:28:53.495Z,62.50
2018-01-30T02:31:20.939Z,62.60
2018-01-30T02:33:49.148Z,63.10
2018-01-30T02:36:16.898Z,63.00
2018-01-30T02:38:44.327Z,63.40
2018-01-30T02:41:11.824Z,63.10
2018-01-30T02:43:39.255Z,62.90
2018-01-30T02:46:07.478Z,62.70
2018-01-30T02:48:34.892Z,62.60
2018-01-30T02:51:02.342Z,62.70
2018-01-30T02:53:29.774Z,62.50
2018-01-30T02:55:57.211Z,62.60
2018-01-30T02:58:24.655Z,62.70
2018-01-30T03:00:52.069Z,62.60
2018-01-30T03:03:20.019Z,62.70
2018-01-30T03:05:47.447Z,63.30
2018-01-30T03:08:14.890Z,63.70
2018-01-30T03:10:42.323Z,64.00
2018-01-30T03:13:09.747Z,65.00
2018-01-30T03:15:37.191Z,65.90
2018-01-30T03:18:04.616Z,65.50
2018-01-30T03:20:32.052Z,65.50
2018-01-30T03:22:59.499Z,65.20
2018-01-30T03:25:26.924Z,65.60
2018-01-30T03:27:54.371Z,65.70
2018-01-30T03:30:21.827Z,65.40
2018-01-30T03:32:49.235Z,65.60
2018-01-30T03:35:16.682Z,65.60
2018-01-30T03:37:44.871Z,65.20
2018-01-30T03:40:12.311Z,65.20
2018-01-30T03:42:40.513Z,65.20
2018-01-30T03:45:08.130Z,65.20
2018-01-30T03:47:35.559Z,65.20
2018-01-30T03:50:02.997Z,65.60
2018-01-30T03:52:30.431Z,65.90
2018-01-30T03:54:57.860Z,66.30
2018-01-30T03:57:26.050Z,66.00
2018-01-30T03:59:53.496Z,65.90
2018-01-30T04:02:21.693Z,66.60
2018-01-30T04:04:49.126Z,66.50
2018-01-30T04:07:16.570Z,67.10
2018-01-30T04:09:44.021Z,68.00
2018-01-30T04:12:11.461Z,68.30
2018-01-30T04:14:38.893Z,69.50
2018-01-30T04:17:06.331Z,69.90
2018-01-30T04:19:33.779Z,70.20
2018-01-30T04:22:01.216Z,70.60
2018-01-30T04:24:28.734Z,70.50
2018-01-30T04:26:56.155Z,70.80
2018-01-30T04:29:23.595Z,70.70
2018-01-30T04:31:51.035Z,70.70
2018-01-30T04:34:18.461Z,70.90
2018-01-30T04:36:45.917Z,71.30
2018-01-30T04:39:13.343Z,71.10
2018-01-30T04:41:40.779Z,70.90
2018-01-30T04:44:08.973Z,70.30
2018-01-30T04:46:36.419Z,70.30
2018-01-30T04:49:03.856Z,70.10
2018-01-30T04:51:31.323Z,70.30
2018-01-30T04:53:58.757Z,70.70
2018-01-30T04:56:26.192Z,70.20
2018-01-30T04:58:53.639Z,70.20
2018-01-30T05:01:21.078Z,69.80
2018-01-30T05:03:48.522Z,69.60
2018-01-30T05:06:15.971Z,69.50
2018-01-30T05:08:43.409Z,69.80
2018-01-30T05:11:10.843Z,70.00
2018-01-30T05:13:39.366Z,70.30
2018-01-30T05:16:06.811Z,70.00
2018-01-30T05:18:35.004Z,71.10
2018-01-30T05:21:02.448Z,71.00
2018-01-30T05:23:30.679Z,71.60
2018-01-30T05:25:58.095Z,71.40
2018-01-30T05:28:25.543Z,71.90
2018-01-30T05:30:52.991Z,72.30
2018-01-30T05:33:21.179Z,72.90
2018-01-30T05:35:48.623Z,72.80
2018-01-30T05:38:16.048Z,73.00
2018-01-30T05:40:43.512Z,73.10
2018-01-30T05:43:10.943Z,73.10
2018-01-30T05:45:38.390Z,73.70
2018-01-30T05:48:05.854Z,74.10
2018-01-30T05:50:33.281Z,74.50
2018-01-30T05:53:00.719Z,75.00
2018-01-30T05:55:28.908Z,75.30
2018-01-30T05:57:56.351Z,75.20
2018-01-30T06:00:23.782Z,75.80
2018-01-30T06:02:51.230Z,76.40
2018-01-30T06:05:18.660Z,76.60
2018-01-30T06:07:46.099Z,76.40
2018-01-30T06:10:13.520Z,76.70
2018-01-30T06:12:40.983Z,77.20
2018-01-30T06:15:09.187Z,77.80
2018-01-30T06:17:36.643Z,77.60
2018-01-30T06:20:04.080Z,77.60
2018-01-30T06:22:31.507Z,77.50
2018-01-30T06:24:58.954Z,78.00
2018-01-30T06:27:26.384Z,77.60
2018-01-30T06:29:53.827Z,78.40
2018-01-30T06:32:21.405Z,77.60
2018-01-30T06:34:48.866Z,77.00
2018-01-30T06:37:16.331Z,76.30
2018-01-30T06:39:43.777Z,76.50
2018-01-30T06:42:12.163Z,76.30
2018-01-30T06:44:39.615Z,76.30
2018-01-30T06:47:07.074Z,76.30
2018-01-30T06:49:34.535Z,76.10
2018-01-30T06:52:01.963Z,76.10
2018-01-30T06:54:29.407Z,76.20
2018-01-30T06:56:56.827Z,75.90
2018-01-30T06:59:24.283Z,76.10
2018-01-30T07:01:51.712Z,76.30
2018-01-30T07:04:19.252Z,76.10
2018-01-30T07:06:46.679Z,76.30
2018-01-30T07:09:14.888Z,77.10
2018-01-30T07:11:42.315Z,77.00
2018-01-30T07:14:09.757Z,77.30
2018-01-30T07:16:37.199Z,77.70
2018-01-30T07:19:04.647Z,77.80
2018-01-30T07:21:32.071Z,78.00
2018-01-30T07:23:59.503Z,78.20
2018-01-30T07:26:26.930Z,78.00
2018-01-30T07:28:54.387Z,78.00
2018-01-30T07:31:21.819Z,78.20
2018-01-30T07:33:49.248Z,78.50
2018-01-30T07:36:16.685Z,78.50
2018-01-30T07:38:44.885Z,78.90
2018-01-30T07:41:12.314Z,78.90
2018-01-30T07:43:39.748Z,79.20
2018-01-30T07:46:07.243Z,79.30
2018-01-30T07:48:34.659Z,78.90
2018-01-30T07:51:02.109Z,79.00
2018-01-30T07:53:29.603Z,79.00
2018-01-30T07:55:57.045Z,78.50
2018-01-30T07:58:24.467Z,78.40
2018-01-30T08:00:51.916Z,78.10
2018-01-30T08:03:19.347Z,77.90
2018-01-30T08:05:46.784Z,77.70
2018-01-30T08:08:14.349Z,77.30
2018-01-30T08:10:41.875Z,77.20
2018-01-30T08:13:10.072Z,77.20
2018-01-30T08:15:38.433Z,77.20
2018-01-30T08:18:06.569Z,76.70
2018-01-30T08:20:33.998Z,76.60
2018-01-30T08:23:02.231Z,76.50
2018-01-30T08:25:29.662Z,76.40
2018-01-30T08:27:57.128Z,76.40
2018-01-30T08:30:24.551Z,76.00
2018-01-30T08:32:52.014Z,76.20
2018-01-30T08:35:19.497Z,75.60
2018-01-30T08:37:46.949Z,74.90
2018-01-30T08:40:14.379Z,74.10
2018-01-30T08:42:41.816Z,72.90
2018-01-30T08:45:09.264Z,71.90
2018-01-30T08:47:36.709Z,70.90
2018-01-30T08:50:04.142Z,70.00
2018-01-30T08:52:31.661Z,69.70
2018-01-30T08:54:59.084Z,68.70
2018-01-30T08:57:26.527Z,68.40
2018-01-30T08:59:53.962Z,67.60
2018-01-30T09:02:21.851Z,66.40
2018-01-30T09:04:49.305Z,64.70
2018-01-30T09:07:16.764Z,64.00
2018-01-30T09:09:44.204Z,63.70
2018-01-30T09:12:11.664Z,63.90
2018-01-30T09:14:39.136Z,65.10
2018-01-30T09:17:06.567Z,65.30
2018-01-30T09:19:34.004Z,65.40
2018-01-30T09:22:01.435Z,65.20
2018-01-30T09:24:28.883Z,64.70
2018-01-30T09:26:56.333Z,63.50
2018-01-30T09:29:23.776Z,62.90
2018-01-30T09:31:51.247Z,62.80
2018-01-30T09:34:18.700Z,62.50
2018-01-30T09:36:46.156Z,60.80
2018-01-30T09:39:13.611Z,60.00
2018-01-30T09:41:41.062Z,60.40
2018-01-30T09:44:08.522Z,60.50
2018-01-30T09:46:35.959Z,60.30
2018-01-30T09:49:04.131Z,60.30
2018-01-30T09:51:31.788Z,59.70
2018-01-30T09:53:59.213Z,59.40
2018-01-30T09:56:26.657Z,59.20
2018-01-30T09:58:54.863Z,59.40
2018-01-30T10:01:22.308Z,59.20
2018-01-30T10:03:49.763Z,59.20
2018-01-30T10:06:17.207Z,58.30
2018-01-30T10:08:44.646Z,57.80
2018-01-30T10:11:12.104Z,56.40
2018-01-30T10:13:39.555Z,56.50
2018-01-30T10:16:07.007Z,56.90
2018-01-30T10:18:34.449Z,57.00
2018-01-30T10:21:01.955Z,57.20
2018-01-30T10:23:29.415Z,57.00
2018-01-30T10:25:56.889Z,57.50
2018-01-30T10:28:24.307Z,58.10
2018-01-30T10:30:51.749Z,58.20
2018-01-30T10:33:19.211Z,58.10
2018-01-30T10:35:46.651Z,57.80
2018-01-30T10:38:14.392Z,57.80
2018-01-30T10:40:41.824Z,56.40
2018-01-30T10:43:10.024Z,55.00
2018-01-30T10:45:37.454Z,54.90
2018-01-30T10:48:04.951Z,55.00
2018-01-30T10:50:32.375Z,55.30
2018-01-30T10:52:59.815Z,54.60
2018-01-30T10:55:27.239Z,54.30
2018-01-30T10:57:54.689Z,53.60
2018-01-30T11:00:22.137Z,52.30
2018-01-30T11:02:49.596Z,52.60
2018-01-30T11:05:17.043Z,52.70
2018-01-30T11:07:44.486Z,51.10
2018-01-30T11:10:11.933Z,50.90
2018-01-30T11:12:39.383Z,51.10
2018-01-30T11:15:06.826Z,50.90
2018-01-30T11:17:35.043Z,51.50
2018-01-30T11:20:02.479Z,51.50
2018-01-30T11:22:29.917Z,52.20
2018-01-30T11:24:57.355Z,52.90
2018-01-30T11:27:25.552Z,55.80
2018-01-30T11:29:52.995Z,55.90
2018-01-30T11:32:20.449Z,56.80
2018-01-30T11:34:48.670Z,58.60
2018-01-30T11:37:16.091Z,58.00
2018-01-30T11:39:44.312Z,58.50
2018-01-30T11:42:11.760Z,58.50
2018-01-30T11:44:39.196Z,58.70
2018-01-30T11:47:06.618Z,58.90
2018-01-30T11:49:34.071Z,59.20
2018-01-30T11:52:01.559Z,59.40
2018-01-30T11:54:29.012Z,59.70
2018-01-30T11:56:56.461Z,59.90
2018-01-30T11:59:23.951Z,60.00
2018-01-30T12:01:51.437Z,60.50
2018-01-30T12:04:18.882Z,60.80
2018-01-30T12:06:47.082Z,61.40
2018-01-30T12:09:14.562Z,61.40
2018-01-30T12:11:42.766Z,61.90
2018-01-30T12:14:10.591Z,61.80
2018-01-30T12:16:38.803Z,62.60
2018-01-30T12:19:06.284Z,62.50
2018-01-30T12:21:33.731Z,62.00
2018-01-30T12:24:01.195Z,61.80
2018-01-30T12:26:28.695Z,61.60
2018-01-30T12:28:56.204Z,62.10
2018-01-30T12:31:23.676Z,61.70
2018-01-30T12:33:52.043Z,62.30
2018-01-30T12:36:19.533Z,62.10
2018-01-30T12:38:46.928Z,62.20
2018-01-30T12:41:14.384Z,62.00
2018-01-30T12:43:41.830Z,62.10
2018-01-30T12:46:09.301Z,61.30
2018-01-30T12:48:36.749Z,60.90
2018-01-30T12:51:04.197Z,60.90
2018-01-30T12:53:32.704Z,61.20
2018-01-30T12:56:00.808Z,61.10
2018-01-30T12:58:28.264Z,61.40
2018-01-30T13:00:55.727Z,61.10
2018-01-30T13:03:23.188Z,61.10
2018-01-30T13:05:50.635Z,61.30
2018-01-30T13:08:18.087Z,60.90
2018-01-30T13:10:45.536Z,59.70
2018-01-30T13:13:12.996Z,59.20
2018-01-30T13:15:40.554Z,59.10
2018-01-30T13:18:09.618Z,59.20
2018-01-30T13:20:37.071Z,59.60
2018-01-30T13:23:04.520Z,59.20
2018-01-30T13:25:32.720Z,58.30
2018-01-30T13:28:00.175Z,58.20
2018-01-30T13:30:27.679Z,57.60
2018-01-30T13:32:55.126Z,57.40
2018-01-30T13:35:22.579Z,57.30
2018-01-30T13:37:50.024Z,57.50
2018-01-30T13:40:17.653Z,57.60
2018-01-30T13:42:45.135Z,57.70
2018-01-30T13:45:12.568Z,57.70
2018-01-30T13:47:40.112Z,57.80
2018-01-30T13:50:07.641Z,57.70
2018-01-30T13:52:35.075Z,57.60
2018-01-30T13:55:02.630Z,57.20
2018-01-30T13:57:30.087Z,57.10
2018-01-30T13:59:57.532Z,57.00
2018-01-30T14:02:25.079Z,57.20
2018-01-30T14:04:52.565Z,57.50
2018-01-30T14:07:19.998Z,57.20
2018-01-30T14:09:47.447Z,56.90
2018-01-30T14:12:14.908Z,57.00
2018-01-30T14:14:42.336Z,57.10
2018-01-30T14:17:10.559Z,56.60
2018-01-30T14:19:38.121Z,56.40
2018-01-30T14:22:05.577Z,56.40
2018-01-30T14:24:33.107Z,56.30
2018-01-30T14:27:00.546Z,56.60
2018-01-30T14:29:28.048Z,56.70
2018-01-30T14:31:55.503Z,57.20
2018-01-30T14:34:22.945Z,57.30
2018-01-30T14:36:50.403Z,57.60
2018-01-30T14:39:17.883Z,57.40
2018-01-30T14:41:45.303Z,57.70
2018-01-30T14:44:12.732Z,58.50
2018-01-30T14:46:40.258Z,58.90
2018-01-30T14:49:07.712Z,59.20
2018-01-30T14:51:35.177Z,59.40
2018-01-30T14:54:02.628Z,59.30
2018-01-30T14:56:30.083Z,59.40
2018-01-30T14:58:57.532Z,59.60
2018-01-30T15:01:24.975Z,60.40
2018-01-30T15:03:52.424Z,60.00
2018-01-30T15:06:19.905Z,60.10
2018-01-30T15:08:47.389Z,61.20
2018-01-30T15:11:14.831Z,61.40
2018-01-30T15:13:42.295Z,61.20
2018-01-30T15:16:09.751Z,61.10
2018-01-30T15:18:37.215Z,61.00
2018-01-30T15:21:04.643Z,61.10
2018-01-30T15:23:32.089Z,61.30
2018-01-30T15:25:59.561Z,61.60
2018-01-30T15:28:27.019Z,62.00
2018-01-30T15:30:54.493Z,62.00
2018-01-30T15:33:21.948Z,62.20
2018-01-30T15:35:49.403Z,62.20
2018-01-30T15:38:17.601Z,62.90
2018-01-30T15:40:45.047Z,62.80
2018-01-30T15:43:12.507Z,62.90
2018-01-30T15:45:40.005Z,63.30
2018-01-30T15:48:08.205Z,63.80
2018-01-30T15:50:35.657Z,63.80
2018-01-30T15:53:03.103Z,63.80
2018-01-30T15:55:30.562Z,64.00
2018-01-30T15:57:58.038Z,64.00
2018-01-30T16:00:25.485Z,64.70
2018-01-30T16:02:52.957Z,65.10
2018-01-30T16:05:20.415Z,64.70
2018-01-30T16:07:47.868Z,64.70
2018-01-30T16:10:15.324Z,64.60
2018-01-30T16:12:42.990Z,64.60
2018-01-30T16:15:10.431Z,64.40
2018-01-30T16:17:37.898Z,65.90
2018-01-30T16:20:05.348Z,65.20
2018-01-30T16:22:32.781Z,65.10
2018-01-30T16:25:01.028Z,65.70
2018-01-30T16:27:28.482Z,65.60
2018-01-30T16:29:55.926Z,65.80
2018-01-30T16:32:23.404Z,65.40
2018-01-30T16:34:50.848Z,66.40
2018-01-30T16:37:18.297Z,65.50
2018-01-30T16:39:45.765Z,65.20
2018-01-30T16:42:13.223Z,64.70
2018-01-30T16:44:40.672Z,65.60
2018-01-30T16:47:08.135Z,65.30
2018-01-30T16:49:35.576Z,64.30
2018-01-30T16:52:03.017Z,64.70
2018-01-30T16:54:30.471Z,64.40
2018-01-30T16:56:57.930Z,64.30
2018-01-30T16:59:25.408Z,64.10
2018-01-30T17:01:52.848Z,64.10
2018-01-30T17:04:20.299Z,64.10
2018-01-30T17:06:47.756Z,64.20
2018-01-30T17:09:15.199Z,64.20
2018-01-30T17:11:42.644Z,64.20
2018-01-30T17:14:10.096Z,64.30
2018-01-30T17:16:37.532Z,64.90
2018-01-30T17:19:05.031Z,67.40
2018-01-30T17:21:32.483Z,70.70
2018-01-30T17:24:00.004Z,71.80
2018-01-30T17:26:27.433Z,72.50
2018-01-30T17:28:54.873Z,73.20
2018-01-30T17:31:22.307Z,73.90
2018-01-30T17:33:49.770Z,74.40
2018-01-30T17:36:17.210Z,74.60
2018-01-30T17:38:44.672Z,74.90
2018-01-30T17:41:13.069Z,75.10
2018-01-30T17:43:40.540Z,76.20
2018-01-30T17:46:07.989Z,75.90
2018-01-30T17:48:35.467Z,76.40
2018-01-30T17:51:02.908Z,77.30
2018-01-30T17:53:30.347Z,77.50
2018-01-30T17:55:58.021Z,77.70
2018-01-30T17:58:25.669Z,77.60
2018-01-30T18:00:53.154Z,77.90
2018-01-30T18:03:20.791Z,77.90
2018-01-30T18:05:48.259Z,78.30
2018-01-30T18:08:15.700Z,78.10
2018-01-30T18:10:43.167Z,78.20
2018-01-30T18:16:03.283Z,78.30
2018-01-30T18:18:30.721Z,78.70
2018-01-30T18:20:58.177Z,78.80
2018-01-30T18:23:25.648Z,78.80
2018-01-30T18:25:53.101Z,78.90
2018-01-30T18:28:20.557Z,78.80
2018-01-30T18:30:48.006Z,79.00
2018-01-30T18:33:15.471Z,78.80
2018-01-30T18:35:42.939Z,79.30
2018-01-30T18:38:10.393Z,79.60
2018-01-30T18:40:37.859Z,78.80
2018-01-30T18:43:05.312Z,78.70
2018-01-30T18:45:32.772Z,78.70
2018-01-30T18:48:00.229Z,78.90
2018-01-30T18:50:27.670Z,78.30
2018-01-30T18:52:55.115Z,78.10
2018-01-30T18:55:22.555Z,78.00
2018-01-30T18:57:50.041Z,78.20
2018-01-30T19:00:17.501Z,77.70
2018-01-30T19:02:44.972Z,78.00
2018-01-30T19:05:12.343Z,78.50
2018-01-30T19:07:39.834Z,78.40
2018-01-30T19:10:08.028Z,78.00
2018-01-30T19:12:35.482Z,78.00
2018-01-30T19:15:02.947Z,77.20
2018-01-30T19:17:30.379Z,76.80
2018-01-30T19:19:58.019Z,76.60
2018-01-30T19:22:25.487Z,76.70
2018-01-30T19:24:52.941Z,76.60
2018-01-30T19:27:20.379Z,76.40
2018-01-30T19:29:47.824Z,76.50
2018-01-30T19:32:15.279Z,76.00
2018-01-30T19:34:42.720Z,75.80
2018-01-30T19:37:10.163Z,75.30
2018-01-30T19:39:37.635Z,75.40
2018-01-30T19:42:05.094Z,75.30
2018-01-30T19:44:32.539Z,75.20
2018-01-30T19:47:00.226Z,74.60
2018-01-30T19:49:27.680Z,74.00
2018-01-30T19:51:55.335Z,74.10
2018-01-30T19:54:22.791Z,74.30
2018-01-30T19:56:50.259Z,75.40
2018-01-30T19:59:17.697Z,75.60
2018-01-30T20:01:45.163Z,76.50
2018-01-30T20:04:12.601Z,76.40
2018-01-30T20:06:40.095Z,76.40
2018-01-30T20:09:07.836Z,77.00
2018-01-30T20:11:35.284Z,76.40
2018-01-30T20:14:02.766Z,76.40
2018-01-30T20:16:30.823Z,76.20
2018-01-30T20:18:58.276Z,76.40
2018-01-30T20:21:25.718Z,76.70
2018-01-30T20:23:53.179Z,76.30
2018-01-30T20:26:21.196Z,76.80
2018-01-30T20:28:48.641Z,77.30
2018-01-30T20:31:16.079Z,77.10
2018-01-30T20:33:43.546Z,77.30
2018-01-30T20:36:11.060Z,77.10
2018-01-30T20:38:39.287Z,77.50
2018-01-30T20:41:06.728Z,77.40
2018-01-30T20:43:34.172Z,77.40
2018-01-30T20:46:01.616Z,77.10
2018-01-30T20:48:29.053Z,76.70
2018-01-30T20:50:56.507Z,76.20
2018-01-30T20:53:24.036Z,76.70
2018-01-30T20:55:51.402Z,76.10
2018-01-30T20:58:18.861Z,76.20
2018-01-30T21:00:46.302Z,76.20
2018-01-30T21:03:13.763Z,76.70
2018-01-30T21:05:41.231Z,76.80
2018-01-30T21:08:08.676Z,77.30
2018-01-30T21:10:36.111Z,77.60
2018-01-30T21:13:03.553Z,77.60
2018-01-30T21:15:30.983Z,77.60
2018-01-30T21:17:58.436Z,77.50
2018-01-30T21:20:25.916Z,77.00
2018-01-30T21:22:53.369Z,76.70
2018-01-30T21:25:20.802Z,76.90
2018-01-30T21:27:48.253Z,77.00
2018-01-30T21:30:15.675Z,77.00
2018-01-30T21:32:43.179Z,76.20
2018-01-30T21:35:10.565Z,76.00
2018-01-30T21:37:38.024Z,75.70
2018-01-30T21:40:05.447Z,75.20
2018-01-30T21:42:33.669Z,76.00
2018-01-30T21:45:01.121Z,75.80
2018-01-30T21:47:28.547Z,75.90
2018-01-30T21:49:55.995Z,76.90
2018-01-30T21:52:24.204Z,76.60
2018-01-30T21:54:51.658Z,76.60
2018-01-30T21:57:19.115Z,76.50
2018-01-30T21:59:46.550Z,76.90
2018-01-30T22:02:14.023Z,77.70
2018-01-30T22:04:41.447Z,77.70
2018-01-30T22:07:08.880Z,77.70
2018-01-30T22:09:36.329Z,77.60
2018-01-30T22:12:03.795Z,77.50
2018-01-30T22:14:31.244Z,77.80
2018-01-30T22:16:58.682Z,78.20
2018-01-30T22:19:26.144Z,78.10
2018-01-30T22:21:53.562Z,78.50
2018-01-30T22:24:21.019Z,78.90
2018-01-30T22:26:48.447Z,79.20
2018-01-30T22:29:15.899Z,79.30
2018-01-30T22:31:43.351Z,79.60
2018-01-30T22:34:10.799Z,80.20
2018-01-30T22:36:38.255Z,80.20
2018-01-30T22:39:05.703Z,80.10
2018-01-30T22:41:33.197Z,80.50
2018-01-30T22:44:00.595Z,80.20
2018-01-30T22:46:28.041Z,79.60
